createdAt,value
2018-06-17T00:00:39.370Z,0.00
2018-06-17T00:01:39.432Z,0.00
2018-06-17T00:02:39.353Z,0.00
2018-06-17T00:03:39.364Z,0.00
2018-06-17T00:04:39.327Z,0.00
2018-06-17T00:05:39.325Z,0.00
2018-06-17T00:06:39.371Z,0.00
2018-06-17T00:07:39.340Z,0.00
2018-06-17T00:08:39.283Z,0.00
2018-06-17T00:09:39.286Z,0.00
2018-06-17T00:10:39.281Z,0.00
2018-06-17T00:11:39.267Z,0.00
2018-06-17T00:12:39.277Z,0.00
2018-06-17T00:13:39.229Z,0.00
2018-06-17T00:14:39.228Z,0.00
2018-06-17T00:15:39.242Z,0.00
2018-06-17T00:16:39.226Z,0.00
2018-06-17T00:17:39.223Z,0.00
2018-06-17T00:18:39.200Z,0.00
2018-06-17T00:19:39.216Z,0.00
2018-06-17T00:20:39.233Z,0.00
2018-06-17T00:21:39.216Z,0.00
2018-06-17T00:22:39.164Z,0.00
2018-06-17T00:23:39.207Z,0.00
2018-06-17T00:24:39.181Z,0.00
2018-06-17T00:25:39.130Z,0.00
2018-06-17T00:26:39.150Z,0.00
2018-06-17T00:27:39.201Z,0.00
2018-06-17T00:28:39.167Z,0.00
2018-06-17T00:29:39.761Z,0.00
2018-06-17T00:30:39.106Z,0.00
2018-06-17T00:31:39.115Z,0.00
2018-06-17T00:32:39.067Z,0.00
2018-06-17T00:33:39.066Z,0.00
2018-06-17T00:34:39.046Z,0.00
2018-06-17T00:35:39.089Z,0.00
2018-06-17T00:36:39.040Z,0.00
2018-06-17T00:37:39.025Z,0.00
2018-06-17T00:38:39.011Z,0.00
2018-06-17T00:39:39.012Z,0.00
2018-06-17T00:40:38.996Z,0.00
2018-06-17T00:41:39.137Z,0.00
2018-06-17T00:42:38.976Z,0.00
2018-06-17T00:43:38.985Z,0.00
2018-06-17T00:44:38.956Z,0.00
2018-06-17T00:45:38.944Z,0.00
2018-06-17T00:46:38.944Z,0.00
2018-06-17T00:47:38.947Z,0.00
2018-06-17T00:48:38.981Z,0.00
2018-06-17T00:49:38.920Z,0.00
2018-06-17T00:50:38.903Z,0.00
2018-06-17T00:51:38.925Z,0.00
2018-06-17T00:52:38.935Z,0.00
2018-06-17T00:53:38.874Z,0.00
2018-06-17T00:54:38.901Z,0.00
2018-06-17T00:55:38.892Z,0.00
2018-06-17T00:56:38.871Z,0.00
2018-06-17T00:57:38.832Z,0.00
2018-06-17T00:58:38.889Z,0.00
2018-06-17T00:59:38.821Z,0.00
2018-06-17T01:00:38.822Z,0.00
2018-06-17T01:01:38.796Z,0.00
2018-06-17T01:02:38.888Z,0.00
2018-06-17T01:03:38.818Z,0.00
2018-06-17T01:04:38.851Z,0.00
2018-06-17T01:05:38.900Z,0.00
2018-06-17T01:06:38.926Z,0.00
2018-06-17T01:07:39.693Z,0.00
2018-06-17T01:08:40.864Z,0.00
2018-06-17T01:09:38.730Z,0.00
2018-06-17T01:10:38.940Z,0.00
2018-06-17T01:11:38.732Z,0.00
2018-06-17T01:12:38.696Z,0.00
2018-06-17T01:13:38.698Z,0.00
2018-06-17T01:14:38.719Z,0.00
2018-06-17T01:15:38.702Z,0.00
2018-06-17T01:16:38.704Z,0.00
2018-06-17T01:17:38.694Z,0.00
2018-06-17T01:18:38.660Z,0.00
2018-06-17T01:19:38.649Z,0.00
2018-06-17T01:20:38.679Z,0.00
2018-06-17T01:21:38.620Z,0.00
2018-06-17T01:22:38.618Z,0.00
2018-06-17T01:23:38.674Z,0.00
2018-06-17T01:24:38.617Z,0.00
2018-06-17T01:25:38.599Z,0.00
2018-06-17T01:26:38.608Z,0.00
2018-06-17T01:27:38.589Z,0.00
2018-06-17T01:28:38.554Z,0.00
2018-06-17T01:29:38.555Z,0.00
2018-06-17T01:30:38.531Z,0.00
2018-06-17T01:31:38.562Z,0.00
2018-06-17T01:32:38.545Z,0.00
2018-06-17T01:33:38.509Z,0.00
2018-06-17T01:34:38.495Z,0.00
2018-06-17T01:35:38.528Z,0.00
2018-06-17T01:36:38.724Z,0.00
2018-06-17T01:37:38.462Z,0.00
2018-06-17T01:38:38.459Z,0.00
2018-06-17T01:39:38.449Z,0.00
2018-06-17T01:40:38.449Z,0.00
2018-06-17T01:41:39.181Z,0.00
2018-06-17T01:42:38.451Z,0.00
2018-06-17T01:43:38.412Z,0.00
2018-06-17T01:44:38.408Z,0.00
2018-06-17T01:45:38.413Z,0.00
2018-06-17T01:46:38.424Z,0.00
2018-06-17T01:47:38.394Z,0.00
2018-06-17T01:48:38.559Z,0.00
2018-06-17T01:49:38.363Z,0.00
2018-06-17T01:50:38.406Z,0.00
2018-06-17T01:51:38.353Z,0.00
2018-06-17T01:52:38.335Z,0.00
2018-06-17T01:53:38.558Z,0.00
2018-06-17T01:54:38.306Z,0.00
2018-06-17T01:55:38.292Z,0.00
2018-06-17T01:56:38.304Z,0.00
2018-06-17T01:57:38.281Z,0.00
2018-06-17T01:58:38.570Z,0.00
2018-06-17T01:59:38.255Z,0.00
2018-06-17T02:00:38.261Z,0.00
2018-06-17T02:01:38.282Z,0.00
2018-06-17T02:02:38.268Z,0.00
2018-06-17T02:03:38.294Z,0.00
2018-06-17T02:04:38.261Z,0.00
2018-06-17T02:05:38.201Z,0.00
2018-06-17T02:06:38.205Z,0.00
2018-06-17T02:07:38.200Z,0.00
2018-06-17T02:08:38.242Z,0.00
2018-06-17T02:09:38.168Z,0.00
2018-06-17T02:10:38.170Z,0.00
2018-06-17T02:11:38.147Z,0.00
2018-06-17T02:12:38.152Z,0.00
2018-06-17T02:13:38.167Z,0.00
2018-06-17T02:14:38.203Z,0.00
2018-06-17T02:15:38.121Z,0.00
2018-06-17T02:16:38.135Z,0.00
2018-06-17T02:17:38.085Z,0.00
2018-06-17T02:18:38.133Z,0.00
2018-06-17T02:19:38.089Z,0.00
2018-06-17T02:20:38.073Z,0.00
2018-06-17T02:21:38.061Z,0.00
2018-06-17T02:22:38.059Z,0.00
2018-06-17T02:23:38.070Z,0.00
2018-06-17T02:24:38.027Z,0.00
2018-06-17T02:25:38.071Z,0.00
2018-06-17T02:26:38.034Z,0.00
2018-06-17T02:27:38.011Z,0.00
2018-06-17T02:28:38.004Z,0.00
2018-06-17T02:29:37.985Z,0.00
2018-06-17T02:30:37.972Z,0.00
2018-06-17T02:31:38.026Z,4.00
2018-06-17T02:32:37.994Z,4.00
2018-06-17T02:33:37.938Z,0.00
2018-06-17T02:34:37.936Z,0.00
2018-06-17T02:35:37.985Z,4.00
2018-06-17T02:36:37.939Z,4.00
2018-06-17T02:37:37.917Z,0.00
2018-06-17T02:38:37.926Z,0.00
2018-06-17T02:39:37.925Z,4.00
2018-06-17T02:40:38.258Z,4.00
2018-06-17T02:41:37.875Z,4.00
2018-06-17T02:42:37.863Z,4.00
2018-06-17T02:43:37.889Z,4.00
2018-06-17T02:44:37.860Z,4.00
2018-06-17T02:45:37.951Z,8.00
2018-06-17T02:46:37.827Z,8.00
2018-06-17T02:47:37.882Z,4.00
2018-06-17T02:48:37.840Z,8.00
2018-06-17T02:49:37.813Z,8.00
2018-06-17T02:50:37.836Z,8.00
2018-06-17T02:51:37.864Z,12.00
2018-06-17T02:52:37.785Z,16.00
2018-06-17T02:53:37.767Z,16.00
2018-06-17T02:54:37.749Z,16.00
2018-06-17T02:55:37.843Z,16.00
2018-06-17T02:56:38.140Z,20.00
2018-06-17T02:57:37.754Z,20.00
2018-06-17T02:58:37.721Z,20.00
2018-06-17T02:59:37.707Z,24.00
2018-06-17T03:00:37.711Z,28.00
2018-06-17T03:01:37.680Z,28.00
2018-06-17T03:02:37.710Z,28.00
2018-06-17T03:03:37.665Z,32.00
2018-06-17T03:04:37.644Z,36.00
2018-06-17T03:05:37.647Z,40.00
2018-06-17T03:06:37.713Z,40.00
2018-06-17T03:07:37.625Z,44.00
2018-06-17T03:08:37.620Z,48.00
2018-06-17T03:09:37.604Z,52.00
2018-06-17T03:10:37.583Z,56.00
2018-06-17T03:11:37.579Z,60.00
2018-06-17T03:12:37.570Z,64.00
2018-06-17T03:13:37.551Z,68.00
2018-06-17T03:14:37.590Z,68.00
2018-06-17T03:15:37.548Z,76.00
2018-06-17T03:16:37.565Z,80.00
2018-06-17T03:17:37.602Z,80.00
2018-06-17T03:18:37.518Z,88.00
2018-06-17T03:19:37.502Z,92.00
2018-06-17T03:20:37.510Z,96.00
2018-06-17T03:21:37.519Z,100.00
2018-06-17T03:22:37.475Z,108.00
2018-06-17T03:23:37.496Z,112.00
2018-06-17T03:24:37.516Z,116.00
2018-06-17T03:25:37.463Z,116.00
2018-06-17T03:26:37.532Z,124.00
2018-06-17T03:27:37.427Z,128.00
2018-06-17T03:28:38.209Z,132.00
2018-06-17T03:29:37.416Z,136.00
2018-06-17T03:30:37.461Z,144.00
2018-06-17T03:31:37.393Z,144.00
2018-06-17T03:32:37.432Z,152.00
2018-06-17T03:33:37.384Z,160.00
2018-06-17T03:34:37.367Z,164.00
2018-06-17T03:35:37.336Z,168.00
2018-06-17T03:36:37.344Z,176.00
2018-06-17T03:37:37.339Z,180.00
2018-06-17T03:38:37.462Z,188.00
2018-06-17T03:39:37.307Z,192.00
2018-06-17T03:40:37.301Z,196.00
2018-06-17T03:41:37.321Z,208.00
2018-06-17T03:42:37.688Z,208.00
2018-06-17T03:43:37.254Z,220.00
2018-06-17T03:44:37.282Z,224.00
2018-06-17T03:45:37.282Z,228.00
2018-06-17T03:46:37.415Z,236.00
2018-06-17T03:47:37.333Z,244.00
2018-06-17T03:48:37.394Z,248.00
2018-06-17T03:49:37.323Z,252.00
2018-06-17T03:50:37.189Z,260.00
2018-06-17T03:51:37.207Z,264.00
2018-06-17T03:52:37.315Z,268.00
2018-06-17T03:53:37.352Z,280.00
2018-06-17T03:54:37.205Z,292.00
2018-06-17T03:55:37.492Z,300.00
2018-06-17T03:56:37.305Z,304.00
2018-06-17T03:57:37.207Z,312.00
2018-06-17T03:58:37.376Z,320.00
2018-06-17T03:59:37.133Z,328.00
2018-06-17T04:00:37.129Z,336.00
2018-06-17T04:01:37.136Z,352.00
2018-06-17T04:02:37.144Z,368.00
2018-06-17T04:03:38.785Z,388.00
2018-06-17T04:04:37.172Z,400.00
2018-06-17T04:05:37.097Z,392.00
2018-06-17T04:06:37.078Z,392.00
2018-06-17T04:07:37.033Z,368.00
2018-06-17T04:25:36.411Z,396.00
2018-06-17T04:26:04.777Z,468.00
2018-06-17T04:27:05.386Z,460.00
2018-06-17T04:28:04.794Z,444.00
2018-06-17T04:29:04.756Z,384.00
2018-06-17T04:30:04.784Z,380.00
2018-06-17T04:31:04.732Z,380.00
2018-06-17T04:32:04.717Z,384.00
2018-06-17T04:33:05.010Z,384.00
2018-06-17T04:34:04.891Z,392.00
2018-06-17T04:35:04.772Z,396.00
2018-06-17T04:36:15.393Z,408.00
2018-06-17T04:37:06.799Z,416.00
2018-06-17T04:38:04.654Z,428.00
2018-06-17T04:39:04.724Z,472.00
2018-06-17T04:40:04.790Z,520.00
2018-06-17T04:41:04.707Z,452.00
2018-06-17T04:42:04.619Z,456.00
2018-06-17T04:43:04.604Z,456.00
2018-06-17T04:44:04.676Z,484.00
2018-06-17T04:45:04.580Z,488.00
2018-06-17T04:46:05.037Z,492.00
2018-06-17T06:20:54.844Z,828.00
2018-06-17T06:21:54.876Z,800.00
2018-06-17T06:22:57.000Z,812.00
2018-06-17T06:23:54.838Z,824.00
2018-06-17T06:25:57.054Z,816.00
2018-06-17T06:28:19.627Z,840.00
2018-06-17T06:31:01.189Z,884.00
2018-06-17T06:31:28.674Z,864.00
2018-06-17T06:32:02.168Z,856.00
2018-06-17T06:33:01.664Z,872.00
2018-06-17T06:34:01.620Z,864.00
2018-06-17T06:35:02.197Z,880.00
2018-06-17T06:36:01.617Z,912.00
2018-06-17T06:37:04.197Z,964.00
2018-06-17T06:38:01.606Z,960.00
2018-06-17T06:39:02.170Z,932.00
2018-06-17T06:40:02.179Z,972.00
2018-06-17T06:41:01.562Z,988.00
2018-06-17T06:42:01.592Z,984.00
2018-06-17T06:43:01.545Z,992.00
2018-06-17T06:44:01.568Z,1024.00
2018-06-17T06:45:02.200Z,992.00
2018-06-17T06:46:01.608Z,980.00
2018-06-17T06:47:01.508Z,1008.00
2018-06-17T06:48:01.522Z,1028.00
2018-06-17T06:49:02.182Z,1072.00
2018-06-17T06:50:02.642Z,1048.00
2018-06-17T06:51:02.269Z,1028.00
2018-06-17T06:52:01.711Z,1068.00
2018-06-17T06:59:17.045Z,1664.00
2018-06-17T07:00:16.277Z,1324.00
2018-06-17T07:02:45.312Z,1964.00
2018-06-17T07:03:18.346Z,1176.00
2018-06-17T07:03:45.839Z,1248.00
2018-06-17T07:04:46.395Z,1320.00
2018-06-17T07:05:54.456Z,1516.00
2018-06-17T07:06:46.056Z,1324.00
2018-06-17T07:08:07.048Z,1356.00
2018-06-17T07:08:56.405Z,1356.00
2018-06-17T07:09:46.804Z,1408.00
2018-06-17T07:10:52.405Z,1360.00
2018-06-17T07:14:58.930Z,1372.00
2018-06-17T07:15:58.097Z,1304.00
2018-06-17T07:19:53.999Z,1388.00
2018-06-17T07:20:37.689Z,1540.00
2018-06-17T07:21:37.722Z,1680.00
2018-06-17T07:22:39.172Z,1816.00
2018-06-17T07:23:39.692Z,1880.00
2018-06-17T07:24:38.469Z,2016.00
2018-06-17T07:25:37.235Z,2032.00
2018-06-17T07:26:37.250Z,2152.00
2018-06-17T07:27:37.279Z,2152.00
2018-06-17T07:28:37.229Z,2104.00
2018-06-17T07:29:37.213Z,2236.00
2018-06-17T07:30:37.197Z,2160.00
2018-06-17T07:31:37.178Z,2140.00
2018-06-17T07:32:37.245Z,2192.00
2018-06-17T07:33:37.208Z,2172.00
2018-06-17T07:34:37.186Z,2184.00
2018-06-17T07:35:37.154Z,2132.00
2018-06-17T07:36:37.160Z,2360.00
2018-06-17T07:37:37.298Z,2204.00
2018-06-17T07:38:37.305Z,2240.00
2018-06-17T07:39:37.124Z,2188.00
2018-06-17T07:40:37.108Z,2236.00
2018-06-17T07:41:37.093Z,2204.00
2018-06-17T07:42:37.095Z,2240.00
2018-06-17T07:43:37.113Z,2228.00
2018-06-17T07:44:37.066Z,2432.00
2018-06-17T07:45:37.073Z,2336.00
2018-06-17T07:46:37.064Z,2384.00
2018-06-17T07:47:37.063Z,2388.00
2018-06-17T07:48:37.070Z,2392.00
2018-06-17T07:49:37.185Z,2732.00
2018-06-17T07:50:37.091Z,2504.00
2018-06-17T07:51:37.021Z,2552.00
2018-06-17T07:52:37.151Z,2652.00
2018-06-17T07:53:37.056Z,3504.00
2018-06-17T07:54:36.994Z,2908.00
2018-06-17T07:55:37.001Z,3004.00
2018-06-17T07:56:36.979Z,3000.00
2018-06-17T07:57:37.512Z,3008.00
2018-06-17T07:58:37.068Z,3368.00
2018-06-17T07:59:36.949Z,3076.00
2018-06-17T08:00:37.813Z,2640.00
2018-06-17T08:01:37.022Z,2724.00
2018-06-17T08:02:39.008Z,3308.00
2018-06-17T08:03:36.922Z,3724.00
2018-06-17T08:04:37.015Z,2928.00
2018-06-17T08:05:36.943Z,3488.00
2018-06-17T08:06:37.054Z,4344.00
2018-06-17T08:07:37.556Z,5292.00
2018-06-17T08:08:36.878Z,4588.00
2018-06-17T08:09:36.868Z,3908.00
2018-06-17T08:10:36.940Z,4452.00
2018-06-17T08:11:38.781Z,2212.00
2018-06-17T08:12:36.838Z,2248.00
2018-06-17T08:13:36.870Z,2648.00
2018-06-17T08:14:36.912Z,5264.00
2018-06-17T08:15:37.309Z,3776.00
2018-06-17T08:16:36.812Z,4524.00
2018-06-17T08:17:36.914Z,3988.00
2018-06-17T08:18:38.324Z,4864.00
2018-06-17T08:19:37.290Z,2568.00
2018-06-17T08:20:36.773Z,2788.00
2018-06-17T08:21:37.296Z,3012.00
2018-06-17T08:22:38.314Z,4096.00
2018-06-17T08:23:36.759Z,5052.00
2018-06-17T08:24:39.998Z,5608.00
2018-06-17T08:25:37.344Z,6524.00
2018-06-17T08:26:36.923Z,6392.00
2018-06-17T08:27:36.725Z,7792.00
2018-06-17T08:28:37.506Z,8796.00
2018-06-17T08:29:36.696Z,15968.00
2018-06-17T08:30:37.504Z,4980.00
2018-06-17T08:31:36.756Z,6408.00
2018-06-17T08:32:41.328Z,4640.00
2018-06-17T08:33:36.763Z,3992.00
2018-06-17T08:34:36.773Z,15776.00
2018-06-17T08:35:36.688Z,28096.00
2018-06-17T08:36:37.062Z,29408.00
2018-06-17T08:37:37.312Z,43872.00
2018-06-17T08:38:44.624Z,19712.00
2018-06-17T08:39:36.959Z,4000.00
2018-06-17T08:40:36.625Z,19904.00
2018-06-17T08:41:36.609Z,38528.00
2018-06-17T08:42:36.609Z,16416.00
2018-06-17T08:43:36.826Z,8196.00
2018-06-17T08:44:37.309Z,5624.00
2018-06-17T08:45:36.588Z,28320.00
2018-06-17T08:46:37.307Z,6128.00
2018-06-17T08:47:36.796Z,23424.00
2018-06-17T08:48:36.949Z,20032.00
2018-06-17T08:49:36.896Z,34304.00
2018-06-17T08:50:36.562Z,40704.00
2018-06-17T08:51:36.557Z,44064.00
2018-06-17T08:52:36.538Z,45952.00
2018-06-17T08:53:36.540Z,30016.00
2018-06-17T08:54:36.545Z,53056.00
2018-06-17T08:55:37.330Z,57376.00
2018-06-17T08:56:38.459Z,60416.00
2018-06-17T08:57:36.551Z,6968.00
2018-06-17T08:58:36.535Z,7112.00
2018-06-17T08:59:36.511Z,27072.00
2018-06-17T09:00:36.711Z,23104.00
2018-06-17T09:01:36.540Z,4288.00
2018-06-17T09:02:37.354Z,9460.00
2018-06-17T09:03:36.510Z,40896.00
2018-06-17T09:04:36.492Z,62912.00
2018-06-17T09:05:36.640Z,3824.00
2018-06-17T09:06:36.481Z,2820.00
2018-06-17T09:07:36.485Z,7052.00
2018-06-17T09:08:38.311Z,3640.00
2018-06-17T09:09:36.541Z,2180.00
2018-06-17T09:10:36.463Z,68544.00
2018-06-17T09:11:36.602Z,69600.00
2018-06-17T09:12:36.451Z,60768.00
2018-06-17T09:13:36.453Z,83776.00
2018-06-17T09:14:36.440Z,27104.00
2018-06-17T09:15:36.454Z,5484.00
2018-06-17T09:16:36.438Z,3464.00
2018-06-17T09:17:36.461Z,2556.00
2018-06-17T09:18:36.422Z,4028.00
2018-06-17T09:19:36.419Z,2644.00
2018-06-17T09:20:36.438Z,2752.00
2018-06-17T09:21:36.423Z,2448.00
2018-06-17T09:22:36.585Z,8892.00
2018-06-17T09:23:36.408Z,3072.00
2018-06-17T09:24:36.401Z,37440.00
2018-06-17T09:25:36.407Z,4536.00
2018-06-17T09:26:36.388Z,9548.00
2018-06-17T09:27:36.395Z,29632.00
2018-06-17T09:28:36.415Z,99136.00
2018-06-17T09:29:36.380Z,80576.00
2018-06-17T09:30:36.388Z,87264.00
2018-06-17T09:31:36.388Z,6396.00
2018-06-17T09:32:36.386Z,5600.00
2018-06-17T09:33:36.361Z,3436.00
2018-06-17T09:34:36.356Z,2392.00
2018-06-17T09:35:36.343Z,1912.00
2018-06-17T09:36:36.334Z,2048.00
2018-06-17T09:37:36.373Z,3596.00
2018-06-17T09:38:36.337Z,2584.00
2018-06-17T09:39:36.335Z,2592.00
2018-06-17T09:40:36.328Z,3520.00
2018-06-17T09:41:36.340Z,52000.00
2018-06-17T09:42:36.314Z,3516.00
2018-06-17T09:43:36.322Z,2560.00
2018-06-17T09:44:36.310Z,4748.00
2018-06-17T09:45:36.500Z,62592.00
2018-06-17T09:46:36.846Z,5608.00
2018-06-17T09:47:41.083Z,4672.00
2018-06-17T09:48:36.396Z,51712.00
2018-06-17T09:49:36.417Z,62464.00
2018-06-17T09:50:36.274Z,23200.00
2018-06-17T09:51:36.404Z,3996.00
2018-06-17T09:52:36.259Z,2008.00
2018-06-17T09:53:36.271Z,1812.00
2018-06-17T09:54:36.270Z,3092.00
2018-06-17T09:55:37.810Z,57408.00
2018-06-17T09:56:36.383Z,4052.00
2018-06-17T09:57:38.874Z,3872.00
2018-06-17T09:58:36.260Z,2356.00
2018-06-17T09:59:36.226Z,2172.00
2018-06-17T10:00:36.221Z,2184.00
2018-06-17T10:01:37.081Z,2116.00
2018-06-17T10:02:37.972Z,2848.00
2018-06-17T10:03:36.196Z,4864.00
2018-06-17T10:04:36.192Z,45888.00
2018-06-17T10:05:36.206Z,7300.00
2018-06-17T10:06:36.205Z,4404.00
2018-06-17T10:07:36.966Z,14508.00
2018-06-17T10:08:36.172Z,4252.00
2018-06-17T10:09:36.201Z,5588.00
2018-06-17T10:10:37.845Z,58464.00
2018-06-17T10:11:36.842Z,24448.00
2018-06-17T10:12:36.142Z,5212.00
2018-06-17T10:13:36.158Z,14368.00
2018-06-17T10:14:36.170Z,10700.00
2018-06-17T10:15:36.123Z,18368.00
2018-06-17T10:16:39.027Z,45952.00
2018-06-17T10:19:32.914Z,26720.00
2018-06-17T10:20:31.866Z,30816.00
2018-06-17T10:21:31.868Z,36608.00
2018-06-17T10:22:31.853Z,7912.00
2018-06-17T10:23:32.232Z,6212.00
2018-06-17T10:24:31.926Z,3044.00
2018-06-17T10:25:31.954Z,29088.00
2018-06-17T10:26:32.125Z,12568.00
2018-06-17T10:27:31.827Z,4224.00
2018-06-17T10:28:32.846Z,2560.00
2018-06-17T10:29:31.834Z,2212.00
2018-06-17T10:30:31.842Z,1716.00
2018-06-17T10:31:32.384Z,1696.00
2018-06-17T10:32:31.804Z,1692.00
2018-06-17T10:33:32.383Z,1876.00
2018-06-17T10:34:31.961Z,1936.00
2018-06-17T10:35:31.893Z,2396.00
2018-06-17T10:36:31.788Z,6472.00
2018-06-17T10:37:31.782Z,4080.00
2018-06-17T10:38:31.767Z,3348.00
2018-06-17T10:39:32.386Z,3232.00
2018-06-17T10:40:32.487Z,5524.00
2018-06-17T10:41:31.748Z,17472.00
2018-06-17T10:42:34.398Z,12832.00
2018-06-17T10:43:31.892Z,11132.00
2018-06-17T10:44:32.394Z,8684.00
2018-06-17T10:45:31.765Z,4720.00
2018-06-17T10:46:31.721Z,3960.00
2018-06-17T10:47:31.724Z,3580.00
2018-06-17T10:48:31.762Z,3076.00
2018-06-17T10:49:31.710Z,2840.00
2018-06-17T10:50:31.748Z,3924.00
2018-06-17T10:51:31.695Z,2640.00
2018-06-17T10:52:32.066Z,2540.00
2018-06-17T10:53:31.926Z,2464.00
2018-06-17T10:54:31.697Z,2312.00
2018-06-17T10:55:33.398Z,3380.00
2018-06-17T10:56:32.665Z,2844.00
2018-06-17T10:57:32.430Z,3296.00
2018-06-17T10:58:31.950Z,5188.00
2018-06-17T10:59:32.444Z,4296.00
2018-06-17T11:00:31.641Z,21664.00
2018-06-17T11:01:32.409Z,6352.00
2018-06-17T11:02:31.610Z,17344.00
2018-06-17T11:03:31.603Z,19264.00
2018-06-17T11:04:31.607Z,22240.00
2018-06-17T11:05:34.789Z,21824.00
2018-06-17T11:06:31.599Z,25856.00
2018-06-17T11:07:31.589Z,30944.00
2018-06-17T11:08:35.708Z,30176.00
2018-06-17T11:09:31.863Z,27424.00
2018-06-17T11:10:31.568Z,23456.00
2018-06-17T11:11:31.600Z,7764.00
2018-06-17T11:12:31.574Z,4676.00
2018-06-17T11:13:31.536Z,5868.00
2018-06-17T11:14:32.157Z,5100.00
2018-06-17T11:15:32.411Z,7320.00
2018-06-17T11:16:31.766Z,60960.00
2018-06-17T11:17:31.513Z,9000.00
2018-06-17T11:18:32.395Z,1632.00
2018-06-17T11:19:31.511Z,54848.00
2018-06-17T11:20:31.626Z,26400.00
2018-06-17T11:21:31.919Z,0.00
2018-06-17T11:22:31.598Z,34016.00
2018-06-17T11:23:32.450Z,36096.00
2018-06-17T11:24:32.421Z,41568.00
2018-06-17T11:25:31.533Z,38240.00
2018-06-17T11:26:31.939Z,35968.00
2018-06-17T11:27:32.522Z,40160.00
2018-06-17T11:28:32.413Z,29504.00
2018-06-17T11:29:31.480Z,52416.00
2018-06-17T11:30:31.744Z,27392.00
2018-06-17T11:31:33.468Z,27168.00
2018-06-17T11:32:31.458Z,23744.00
2018-06-17T11:33:31.543Z,31808.00
2018-06-17T11:34:31.506Z,29344.00
2018-06-17T11:35:31.606Z,23072.00
2018-06-17T11:36:33.432Z,28480.00
2018-06-17T11:37:31.607Z,25024.00
2018-06-17T11:38:31.430Z,11320.00
2018-06-17T11:39:31.445Z,21408.00
2018-06-17T11:40:31.483Z,8392.00
2018-06-17T11:41:31.423Z,20864.00
2018-06-17T11:42:31.404Z,20352.00
2018-06-17T11:43:31.420Z,5340.00
2018-06-17T11:44:31.390Z,4580.00
2018-06-17T11:45:31.418Z,3704.00
2018-06-17T11:46:31.470Z,5956.00
2018-06-17T11:47:31.388Z,5056.00
2018-06-17T11:48:31.511Z,6120.00
2018-06-17T11:49:32.969Z,5880.00
2018-06-17T11:50:31.390Z,6016.00
2018-06-17T11:51:31.356Z,5900.00
2018-06-17T11:52:32.439Z,5668.00
2018-06-17T11:53:33.928Z,5884.00
2018-06-17T11:54:31.346Z,5972.00
2018-06-17T11:55:31.330Z,6492.00
2018-06-17T11:56:31.361Z,6852.00
2018-06-17T11:57:31.320Z,7220.00
2018-06-17T11:58:31.978Z,7060.00
2018-06-17T11:59:31.319Z,7092.00
2018-06-17T12:00:31.300Z,7280.00
2018-06-17T12:01:31.339Z,7728.00
2018-06-17T12:02:31.302Z,8476.00
2018-06-17T12:03:31.319Z,7420.00
2018-06-17T12:04:31.343Z,6304.00
2018-06-17T12:05:31.274Z,6852.00
2018-06-17T12:06:31.336Z,7444.00
2018-06-17T12:07:31.251Z,6484.00
2018-06-17T12:08:31.294Z,6032.00
2018-06-17T12:09:31.306Z,5172.00
2018-06-17T12:10:31.259Z,4588.00
2018-06-17T12:11:31.244Z,3872.00
2018-06-17T12:12:31.238Z,4508.00
2018-06-17T12:13:31.221Z,5016.00
2018-06-17T12:14:31.948Z,5468.00
2018-06-17T12:15:31.208Z,5620.00
2018-06-17T12:16:31.211Z,5272.00
2018-06-17T12:17:31.201Z,4984.00
2018-06-17T12:18:31.178Z,4800.00
2018-06-17T12:19:31.198Z,4640.00
2018-06-17T12:20:31.194Z,4240.00
2018-06-17T12:21:31.168Z,4000.00
2018-06-17T12:22:31.688Z,4116.00
2018-06-17T12:23:31.158Z,4152.00
2018-06-17T12:24:31.730Z,4548.00
2018-06-17T12:25:31.219Z,4444.00
2018-06-17T12:26:31.162Z,4640.00
2018-06-17T12:27:31.135Z,4248.00
2018-06-17T12:28:31.126Z,4140.00
2018-06-17T12:29:31.127Z,4140.00
2018-06-17T12:30:31.120Z,4364.00
2018-06-17T12:31:31.200Z,4536.00
2018-06-17T12:32:32.597Z,4396.00
2018-06-17T12:33:31.187Z,4408.00
2018-06-17T12:34:31.956Z,4080.00
2018-06-17T12:35:31.099Z,3684.00
2018-06-17T12:36:31.116Z,3412.00
2018-06-17T12:37:31.106Z,3212.00
2018-06-17T12:38:31.065Z,2928.00
2018-06-17T12:39:31.053Z,2964.00
2018-06-17T12:40:31.052Z,3148.00
2018-06-17T12:41:31.040Z,3228.00
2018-06-17T12:42:31.077Z,2732.00
2018-06-17T12:43:31.038Z,2736.00
2018-06-17T12:44:31.018Z,3316.00
2018-06-17T12:45:31.006Z,2988.00
2018-06-17T12:46:31.015Z,3488.00
2018-06-17T12:47:31.030Z,3704.00
2018-06-17T12:48:31.051Z,4044.00
2018-06-17T12:49:31.918Z,4420.00
2018-06-17T12:50:30.987Z,4856.00
2018-06-17T12:51:30.990Z,4728.00
2018-06-17T12:52:31.966Z,5188.00
2018-06-17T12:53:31.016Z,4816.00
2018-06-17T12:54:30.949Z,4876.00
2018-06-17T12:55:31.176Z,4472.00
2018-06-17T12:56:30.941Z,4624.00
2018-06-17T12:57:31.035Z,4372.00
2018-06-17T12:58:31.525Z,4112.00
2018-06-17T12:59:30.925Z,4160.00
2018-06-17T13:00:30.908Z,3964.00
2018-06-17T13:01:30.886Z,4064.00
2018-06-17T13:02:30.900Z,4204.00
2018-06-17T13:03:30.915Z,4104.00
2018-06-17T13:04:31.009Z,4032.00
2018-06-17T13:05:30.905Z,4012.00
2018-06-17T13:06:30.884Z,3944.00
2018-06-17T13:07:30.884Z,4088.00
2018-06-17T13:08:30.846Z,4088.00
2018-06-17T13:09:32.466Z,4180.00
2018-06-17T13:10:31.466Z,4268.00
2018-06-17T13:11:30.836Z,4396.00
2018-06-17T13:12:30.834Z,4264.00
2018-06-17T13:13:30.839Z,4092.00
2018-06-17T13:14:30.796Z,3884.00
2018-06-17T13:15:30.806Z,3764.00
2018-06-17T13:16:30.791Z,3488.00
2018-06-17T13:17:30.787Z,3296.00
2018-06-17T13:18:30.788Z,3916.00
2018-06-17T13:19:30.801Z,3856.00
2018-06-17T13:20:30.758Z,3600.00
2018-06-17T13:21:30.758Z,3480.00
2018-06-17T13:22:30.752Z,3492.00
2018-06-17T13:23:30.751Z,3912.00
2018-06-17T13:24:30.769Z,3772.00
2018-06-17T13:25:30.804Z,4092.00
2018-06-17T13:26:30.722Z,3868.00
2018-06-17T13:27:30.765Z,4060.00
2018-06-17T13:28:30.721Z,4296.00
2018-06-17T13:29:30.702Z,4360.00
2018-06-17T13:30:30.698Z,4352.00
2018-06-17T13:31:34.457Z,4700.00
2018-06-17T13:32:30.706Z,4456.00
2018-06-17T13:33:30.667Z,4608.00
2018-06-17T13:34:30.665Z,4580.00
2018-06-17T13:35:30.683Z,4432.00
2018-06-17T13:36:30.649Z,4564.00
2018-06-17T13:37:30.646Z,4688.00
2018-06-17T13:38:30.642Z,5016.00
2018-06-17T13:39:30.628Z,4956.00
2018-06-17T13:40:30.632Z,5332.00
2018-06-17T13:41:30.635Z,5176.00
2018-06-17T13:42:30.630Z,5176.00
2018-06-17T13:43:30.604Z,5768.00
2018-06-17T13:44:30.599Z,5812.00
2018-06-17T13:45:30.589Z,5704.00
2018-06-17T13:46:30.584Z,5760.00
2018-06-17T13:47:30.627Z,6044.00
2018-06-17T13:48:30.613Z,6116.00
2018-06-17T13:49:30.568Z,6424.00
2018-06-17T13:50:30.553Z,6652.00
2018-06-17T13:51:30.638Z,6792.00
2018-06-17T13:52:30.547Z,5936.00
2018-06-17T13:53:30.537Z,5524.00
2018-06-17T13:54:30.540Z,5896.00
2018-06-17T13:55:30.528Z,5324.00
2018-06-17T13:56:30.515Z,5512.00
2018-06-17T13:57:30.527Z,6284.00
2018-06-17T13:58:30.511Z,5368.00
2018-06-17T13:59:30.507Z,5576.00
2018-06-17T14:00:32.034Z,6000.00
2018-06-17T14:01:30.473Z,5488.00
2018-06-17T14:02:30.487Z,5692.00
2018-06-17T14:03:32.988Z,5228.00
2018-06-17T14:04:30.474Z,5120.00
2018-06-17T14:05:30.463Z,5332.00
2018-06-17T14:06:30.503Z,5016.00
2018-06-17T14:07:30.441Z,4960.00
2018-06-17T14:08:30.471Z,4852.00
2018-06-17T14:09:30.577Z,4992.00
2018-06-17T14:10:30.428Z,4948.00
2018-06-17T14:11:30.501Z,5192.00
2018-06-17T14:12:30.407Z,4756.00
2018-06-17T14:13:31.019Z,4628.00
2018-06-17T14:14:30.408Z,4496.00
2018-06-17T14:15:30.411Z,4536.00
2018-06-17T14:16:30.383Z,4336.00
2018-06-17T14:17:30.381Z,4376.00
2018-06-17T14:18:30.374Z,4296.00
2018-06-17T14:19:30.365Z,4088.00
2018-06-17T14:20:30.388Z,4204.00
2018-06-17T14:21:30.347Z,3824.00
2018-06-17T14:22:30.340Z,3784.00
2018-06-17T14:23:30.339Z,3572.00
2018-06-17T14:24:30.324Z,3584.00
2018-06-17T14:25:30.393Z,3528.00
2018-06-17T14:26:30.322Z,3468.00
2018-06-17T14:27:30.310Z,3348.00
2018-06-17T14:28:30.307Z,3152.00
2018-06-17T14:29:30.288Z,3168.00
2018-06-17T14:30:30.393Z,3416.00
2018-06-17T14:31:30.324Z,3596.00